sensor_id;sensor_type;location;lat;lon;timestamp;P1;durP1;ratioP1;P2;durP2;ratioP2
7340;SDS011;6870;50.944;6.932;2023-06-24T00:00:05;5.17;;;4.70;;
7340;SDS011;6870;50.944;6.932;2023-06-24T00:02:36;4.70;;;4.00;;
7340;SDS011;6870;50.944;6.932;2023-06-24T00:05:04;4.67;;;4.17;;
7340;SDS011;6870;50.944;6.932;2023-06-24T00:07:35;4.30;;;3.90;;
7340;SDS011;6870;50.944;6.932;2023-06-24T00:10:12;4.30;;;3.90;;
7340;SDS011;6870;50.944;6.932;2023-06-24T00:12:44;7.43;;;4.43;;
7340;SDS011;6870;50.944;6.932;2023-06-24T00:15:12;4.23;;;3.93;;
7340;SDS011;6870;50.944;6.932;2023-06-24T00:17:40;5.13;;;4.53;;
7340;SDS011;6870;50.944;6.932;2023-06-24T00:20:09;4.93;;;4.40;;
7340;SDS011;6870;50.944;6.932;2023-06-24T00:22:41;4.83;;;4.30;;
7340;SDS011;6870;50.944;6.932;2023-06-24T00:25:12;4.10;;;3.70;;
7340;SDS011;6870;50.944;6.932;2023-06-24T00:27:40;4.00;;;3.60;;
7340;SDS011;6870;50.944;6.932;2023-06-24T00:30:09;3.93;;;3.53;;
7340;SDS011;6870;50.944;6.932;2023-06-24T00:32:38;4.03;;;3.70;;
7340;SDS011;6870;50.944;6.932;2023-06-24T00:35:07;5.10;;;3.70;;
7340;SDS011;6870;50.944;6.932;2023-06-24T00:37:38;12.07;;;4.00;;
7340;SDS011;6870;50.944;6.932;2023-06-24T00:40:07;4.27;;;3.87;;
7340;SDS011;6870;50.944;6.932;2023-06-24T00:42:44;4.40;;;4.00;;
7340;SDS011;6870;50.944;6.932;2023-06-24T00:45:13;4.80;;;3.30;;
7340;SDS011;6870;50.944;6.932;2023-06-24T00:47:42;3.83;;;3.47;;
7340;SDS011;6870;50.944;6.932;2023-06-24T00:50:11;4.70;;;3.80;;
7340;SDS011;6870;50.944;6.932;2023-06-24T00:52:39;3.80;;;3.50;;
7340;SDS011;6870;50.944;6.932;2023-06-24T00:55:09;4.57;;;3.80;;
7340;SDS011;6870;50.944;6.932;2023-06-24T00:57:39;3.70;;;3.40;;
7340;SDS011;6870;50.944;6.932;2023-06-24T01:00:09;4.40;;;3.30;;
7340;SDS011;6870;50.944;6.932;2023-06-24T01:02:40;4.00;;;3.60;;
7340;SDS011;6870;50.944;6.932;2023-06-24T01:05:09;4.53;;;3.80;;
7340;SDS011;6870;50.944;6.932;2023-06-24T01:07:38;4.13;;;3.73;;
7340;SDS011;6870;50.944;6.932;2023-06-24T01:10:08;3.60;;;3.30;;
7340;SDS011;6870;50.944;6.932;2023-06-24T01:12:38;5.70;;;3.53;;
7340;SDS011;6870;50.944;6.932;2023-06-24T01:15:11;3.70;;;3.40;;
7340;SDS011;6870;50.944;6.932;2023-06-24T01:17:44;3.80;;;3.40;;
7340;SDS011;6870;50.944;6.932;2023-06-24T01:20:18;4.00;;;3.60;;
7340;SDS011;6870;50.944;6.932;2023-06-24T01:23:06;3.67;;;3.30;;
7340;SDS011;6870;50.944;6.932;2023-06-24T01:25:57;3.80;;;3.40;;
7340;SDS011;6870;50.944;6.932;2023-06-24T01:28:50;3.33;;;3.03;;
7340;SDS011;6870;50.944;6.932;2023-06-24T01:31:38;3.33;;;3.03;;
7340;SDS011;6870;50.944;6.932;2023-06-24T01:34:12;4.27;;;3.87;;
7340;SDS011;6870;50.944;6.932;2023-06-24T01:36:49;4.03;;;3.60;;
7340;SDS011;6870;50.944;6.932;2023-06-24T01:39:24;4.70;;;3.67;;
7340;SDS011;6870;50.944;6.932;2023-06-24T01:41:56;3.33;;;3.03;;
7340;SDS011;6870;50.944;6.932;2023-06-24T01:44:29;3.50;;;3.20;;
7340;SDS011;6870;50.944;6.932;2023-06-24T01:46:59;3.97;;;3.63;;
7340;SDS011;6870;50.944;6.932;2023-06-24T01:49:32;4.50;;;4.10;;
7340;SDS011;6870;50.944;6.932;2023-06-24T01:52:05;5.23;;;4.23;;
7340;SDS011;6870;50.944;6.932;2023-06-24T01:54:35;5.43;;;4.93;;
7340;SDS011;6870;50.944;6.932;2023-06-24T01:57:08;5.20;;;4.30;;
7340;SDS011;6870;50.944;6.932;2023-06-24T01:59:38;5.10;;;4.57;;
7340;SDS011;6870;50.944;6.932;2023-06-24T02:02:10;5.30;;;4.80;;
7340;SDS011;6870;50.944;6.932;2023-06-24T02:04:39;5.20;;;4.70;;
7340;SDS011;6870;50.944;6.932;2023-06-24T02:07:07;5.70;;;4.70;;
7340;SDS011;6870;50.944;6.932;2023-06-24T02:09:36;6.70;;;5.50;;
7340;SDS011;6870;50.944;6.932;2023-06-24T02:12:07;5.37;;;4.43;;
7340;SDS011;6870;50.944;6.932;2023-06-24T02:14:36;5.57;;;5.07;;
7340;SDS011;6870;50.944;6.932;2023-06-24T02:17:06;5.57;;;5.07;;
7340;SDS011;6870;50.944;6.932;2023-06-24T02:19:38;6.20;;;5.60;;
7340;SDS011;6870;50.944;6.932;2023-06-24T02:22:07;5.83;;;5.27;;
7340;SDS011;6870;50.944;6.932;2023-06-24T02:24:36;5.10;;;4.53;;
7340;SDS011;6870;50.944;6.932;2023-06-24T02:27:06;5.67;;;5.20;;
7340;SDS011;6870;50.944;6.932;2023-06-24T02:29:34;8.93;;;5.63;;
7340;SDS011;6870;50.944;6.932;2023-06-24T02:32:04;5.30;;;4.80;;
7340;SDS011;6870;50.944;6.932;2023-06-24T02:34:35;4.83;;;4.43;;
7340;SDS011;6870;50.944;6.932;2023-06-24T02:37:04;5.50;;;4.53;;
7340;SDS011;6870;50.944;6.932;2023-06-24T02:39:32;5.90;;;5.30;;
7340;SDS011;6870;50.944;6.932;2023-06-24T02:42:01;5.30;;;4.80;;
7340;SDS011;6870;50.944;6.932;2023-06-24T02:44:29;4.80;;;4.30;;
7340;SDS011;6870;50.944;6.932;2023-06-24T02:46:57;5.20;;;4.70;;
7340;SDS011;6870;50.944;6.932;2023-06-24T02:49:26;5.63;;;5.13;;
7340;SDS011;6870;50.944;6.932;2023-06-24T02:51:56;5.00;;;4.57;;
7340;SDS011;6870;50.944;6.932;2023-06-24T02:54:24;5.27;;;4.80;;
7340;SDS011;6870;50.944;6.932;2023-06-24T02:56:53;7.07;;;5.50;;
7340;SDS011;6870;50.944;6.932;2023-06-24T02:59:25;5.47;;;4.90;;
7340;SDS011;6870;50.944;6.932;2023-06-24T03:01:53;4.87;;;4.37;;
7340;SDS011;6870;50.944;6.932;2023-06-24T03:04:21;5.00;;;4.47;;
7340;SDS011;6870;50.944;6.932;2023-06-24T03:06:49;5.70;;;5.20;;
7340;SDS011;6870;50.944;6.932;2023-06-24T03:09:20;5.80;;;4.93;;
7340;SDS011;6870;50.944;6.932;2023-06-24T03:11:49;5.90;;;5.00;;
7340;SDS011;6870;50.944;6.932;2023-06-24T03:14:17;5.07;;;4.60;;
7340;SDS011;6870;50.944;6.932;2023-06-24T03:16:45;5.27;;;4.77;;
7340;SDS011;6870;50.944;6.932;2023-06-24T03:19:13;5.50;;;5.00;;
7340;SDS011;6870;50.944;6.932;2023-06-24T03:21:41;4.73;;;4.33;;
7340;SDS011;6870;50.944;6.932;2023-06-24T03:24:09;4.80;;;4.30;;
7340;SDS011;6870;50.944;6.932;2023-06-24T03:26:39;4.70;;;4.30;;
7340;SDS011;6870;50.944;6.932;2023-06-24T03:29:07;4.70;;;4.27;;
7340;SDS011;6870;50.944;6.932;2023-06-24T03:31:35;4.47;;;4.07;;
7340;SDS011;6870;50.944;6.932;2023-06-24T03:34:03;5.20;;;4.80;;
7340;SDS011;6870;50.944;6.932;2023-06-24T03:36:31;5.10;;;4.50;;
7340;SDS011;6870;50.944;6.932;2023-06-24T03:39:01;4.90;;;4.33;;
7340;SDS011;6870;50.944;6.932;2023-06-24T03:41:29;4.77;;;4.37;;
7340;SDS011;6870;50.944;6.932;2023-06-24T03:43:58;4.97;;;4.50;;
7340;SDS011;6870;50.944;6.932;2023-06-24T03:46:26;5.40;;;4.90;;
7340;SDS011;6870;50.944;6.932;2023-06-24T03:48:58;4.93;;;4.53;;
7340;SDS011;6870;50.944;6.932;2023-06-24T03:51:27;5.67;;;4.80;;
7340;SDS011;6870;50.944;6.932;2023-06-24T03:53:55;4.53;;;4.13;;
7340;SDS011;6870;50.944;6.932;2023-06-24T03:56:23;4.67;;;4.27;;
7340;SDS011;6870;50.944;6.932;2023-06-24T03:58:51;5.30;;;4.80;;
7340;SDS011;6870;50.944;6.932;2023-06-24T04:01:20;6.00;;;5.40;;
7340;SDS011;6870;50.944;6.932;2023-06-24T04:03:48;5.43;;;4.67;;
7340;SDS011;6870;50.944;6.932;2023-06-24T04:06:16;5.00;;;4.50;;
7340;SDS011;6870;50.944;6.932;2023-06-24T04:08:44;5.30;;;4.80;;
7340;SDS011;6870;50.944;6.932;2023-06-24T04:11:14;5.10;;;4.60;;
7340;SDS011;6870;50.944;6.932;2023-06-24T04:13:42;4.30;;;3.90;;
7340;SDS011;6870;50.944;6.932;2023-06-24T04:16:11;4.70;;;4.30;;
7340;SDS011;6870;50.944;6.932;2023-06-24T04:18:40;5.03;;;4.63;;
7340;SDS011;6870;50.944;6.932;2023-06-24T04:21:08;4.70;;;4.30;;
7340;SDS011;6870;50.944;6.932;2023-06-24T04:23:36;4.70;;;4.30;;
7340;SDS011;6870;50.944;6.932;2023-06-24T04:26:04;5.00;;;4.60;;
7340;SDS011;6870;50.944;6.932;2023-06-24T04:28:33;5.00;;;4.50;;
7340;SDS011;6870;50.944;6.932;2023-06-24T04:31:00;6.00;;;4.23;;
7340;SDS011;6870;50.944;6.932;2023-06-24T04:33:31;5.40;;;4.90;;
7340;SDS011;6870;50.944;6.932;2023-06-24T04:36:00;4.70;;;4.30;;
7340;SDS011;6870;50.944;6.932;2023-06-24T04:38:28;4.63;;;3.90;;
7340;SDS011;6870;50.944;6.932;2023-06-24T04:40:56;4.70;;;4.30;;
7340;SDS011;6870;50.944;6.932;2023-06-24T04:43:25;4.57;;;4.17;;
7340;SDS011;6870;50.944;6.932;2023-06-24T04:45:54;4.50;;;4.10;;
7340;SDS011;6870;50.944;6.932;2023-06-24T04:48:23;4.20;;;3.80;;
7340;SDS011;6870;50.944;6.932;2023-06-24T04:50:51;8.07;;;4.77;;
7340;SDS011;6870;50.944;6.932;2023-06-24T04:53:22;6.00;;;4.53;;
7340;SDS011;6870;50.944;6.932;2023-06-24T04:55:50;6.10;;;5.03;;
7340;SDS011;6870;50.944;6.932;2023-06-24T04:58:18;4.30;;;4.00;;
7340;SDS011;6870;50.944;6.932;2023-06-24T05:00:46;5.30;;;4.80;;
7340;SDS011;6870;50.944;6.932;2023-06-24T05:03:14;7.73;;;3.93;;
7340;SDS011;6870;50.944;6.932;2023-06-24T05:05:42;5.10;;;4.60;;
7340;SDS011;6870;50.944;6.932;2023-06-24T05:08:10;4.70;;;4.03;;
7340;SDS011;6870;50.944;6.932;2023-06-24T05:10:39;5.20;;;4.70;;
7340;SDS011;6870;50.944;6.932;2023-06-24T05:13:07;4.67;;;4.00;;
7340;SDS011;6870;50.944;6.932;2023-06-24T05:15:35;4.70;;;4.30;;
7340;SDS011;6870;50.944;6.932;2023-06-24T05:18:04;5.80;;;4.40;;
7340;SDS011;6870;50.944;6.932;2023-06-24T05:20:32;5.03;;;4.63;;
7340;SDS011;6870;50.944;6.932;2023-06-24T05:23:00;4.50;;;4.10;;
7340;SDS011;6870;50.944;6.932;2023-06-24T05:25:27;4.70;;;3.97;;
7340;SDS011;6870;50.944;6.932;2023-06-24T05:27:57;4.40;;;4.00;;
7340;SDS011;6870;50.944;6.932;2023-06-24T05:30:25;5.37;;;4.87;;
7340;SDS011;6870;50.944;6.932;2023-06-24T05:32:53;5.13;;;4.13;;
7340;SDS011;6870;50.944;6.932;2023-06-24T05:35:21;4.40;;;4.00;;
7340;SDS011;6870;50.944;6.932;2023-06-24T05:37:49;4.87;;;4.33;;
7340;SDS011;6870;50.944;6.932;2023-06-24T05:40:17;4.40;;;4.00;;
7340;SDS011;6870;50.944;6.932;2023-06-24T05:42:45;4.50;;;4.10;;
7340;SDS011;6870;50.944;6.932;2023-06-24T05:45:14;6.83;;;4.27;;
7340;SDS011;6870;50.944;6.932;2023-06-24T05:47:42;4.63;;;4.23;;
7340;SDS011;6870;50.944;6.932;2023-06-24T05:50:13;5.50;;;4.30;;
7340;SDS011;6870;50.944;6.932;2023-06-24T05:52:41;4.90;;;4.50;;
7340;SDS011;6870;50.944;6.932;2023-06-24T05:55:09;4.47;;;4.07;;
7340;SDS011;6870;50.944;6.932;2023-06-24T05:57:39;4.70;;;4.13;;
7340;SDS011;6870;50.944;6.932;2023-06-24T06:00:08;5.10;;;4.60;;
7340;SDS011;6870;50.944;6.932;2023-06-24T06:02:39;4.30;;;3.90;;
7340;SDS011;6870;50.944;6.932;2023-06-24T06:05:07;5.60;;;4.30;;
7340;SDS011;6870;50.944;6.932;2023-06-24T06:07:36;5.00;;;4.50;;
7340;SDS011;6870;50.944;6.932;2023-06-24T06:10:06;3.90;;;3.50;;
7340;SDS011;6870;50.944;6.932;2023-06-24T06:12:35;5.30;;;4.80;;
7340;SDS011;6870;50.944;6.932;2023-06-24T06:15:03;4.23;;;3.73;;
7340;SDS011;6870;50.944;6.932;2023-06-24T06:17:32;5.30;;;4.30;;
7340;SDS011;6870;50.944;6.932;2023-06-24T06:20:02;4.87;;;4.13;;
7340;SDS011;6870;50.944;6.932;2023-06-24T06:22:31;6.97;;;4.40;;
7340;SDS011;6870;50.944;6.932;2023-06-24T06:25:04;5.40;;;4.03;;
7340;SDS011;6870;50.944;6.932;2023-06-24T06:27:33;4.93;;;4.43;;
7340;SDS011;6870;50.944;6.932;2023-06-24T06:30:01;6.00;;;4.13;;
7340;SDS011;6870;50.944;6.932;2023-06-24T06:32:30;5.67;;;4.63;;
7340;SDS011;6870;50.944;6.932;2023-06-24T06:34:58;5.07;;;4.00;;
7340;SDS011;6870;50.944;6.932;2023-06-24T06:37:28;5.20;;;4.60;;
7340;SDS011;6870;50.944;6.932;2023-06-24T06:39:56;5.93;;;3.97;;
7340;SDS011;6870;50.944;6.932;2023-06-24T06:42:24;4.33;;;3.93;;
7340;SDS011;6870;50.944;6.932;2023-06-24T06:44:52;4.70;;;3.90;;
7340;SDS011;6870;50.944;6.932;2023-06-24T06:47:20;4.60;;;3.50;;
7340;SDS011;6870;50.944;6.932;2023-06-24T06:49:50;6.97;;;5.07;;
7340;SDS011;6870;50.944;6.932;2023-06-24T06:52:18;6.53;;;4.63;;
7340;SDS011;6870;50.944;6.932;2023-06-24T06:54:47;4.43;;;3.87;;
7340;SDS011;6870;50.944;6.932;2023-06-24T06:57:15;5.43;;;3.80;;
7340;SDS011;6870;50.944;6.932;2023-06-24T06:59:43;5.50;;;3.60;;
7340;SDS011;6870;50.944;6.932;2023-06-24T07:02:11;5.73;;;4.10;;
7340;SDS011;6870;50.944;6.932;2023-06-24T07:04:39;4.60;;;4.20;;
7340;SDS011;6870;50.944;6.932;2023-06-24T07:07:07;9.13;;;4.03;;
7340;SDS011;6870;50.944;6.932;2023-06-24T07:09:35;4.13;;;3.73;;
7340;SDS011;6870;50.944;6.932;2023-06-24T07:12:05;9.40;;;4.43;;
7340;SDS011;6870;50.944;6.932;2023-06-24T07:14:34;4.23;;;3.40;;
7340;SDS011;6870;50.944;6.932;2023-06-24T07:17:03;6.27;;;4.57;;
7340;SDS011;6870;50.944;6.932;2023-06-24T07:19:31;9.83;;;4.93;;
7340;SDS011;6870;50.944;6.932;2023-06-24T07:21:59;4.53;;;4.10;;
7340;SDS011;6870;50.944;6.932;2023-06-24T07:24:27;7.90;;;4.20;;
7340;SDS011;6870;50.944;6.932;2023-06-24T07:26:55;8.10;;;4.60;;
7340;SDS011;6870;50.944;6.932;2023-06-24T07:29:25;9.43;;;4.30;;
7340;SDS011;6870;50.944;6.932;2023-06-24T07:31:53;6.83;;;4.30;;
7340;SDS011;6870;50.944;6.932;2023-06-24T07:34:21;8.20;;;4.83;;
7340;SDS011;6870;50.944;6.932;2023-06-24T07:36:49;9.80;;;6.60;;
7340;SDS011;6870;50.944;6.932;2023-06-24T07:39:17;8.47;;;5.30;;
7340;SDS011;6870;50.944;6.932;2023-06-24T07:41:45;8.27;;;4.63;;
7340;SDS011;6870;50.944;6.932;2023-06-24T07:44:26;7.07;;;4.93;;
7340;SDS011;6870;50.944;6.932;2023-06-24T07:46:54;5.90;;;4.30;;
7340;SDS011;6870;50.944;6.932;2023-06-24T07:49:22;8.60;;;4.10;;
7340;SDS011;6870;50.944;6.932;2023-06-24T07:51:50;8.60;;;4.70;;
7340;SDS011;6870;50.944;6.932;2023-06-24T07:54:18;6.43;;;4.70;;
7340;SDS011;6870;50.944;6.932;2023-06-24T07:56:46;7.93;;;4.77;;
7340;SDS011;6870;50.944;6.932;2023-06-24T07:59:14;7.13;;;4.90;;
7340;SDS011;6870;50.944;6.932;2023-06-24T08:01:43;5.03;;;4.23;;
7340;SDS011;6870;50.944;6.932;2023-06-24T08:04:11;5.60;;;4.17;;
7340;SDS011;6870;50.944;6.932;2023-06-24T08:06:39;5.83;;;4.33;;
7340;SDS011;6870;50.944;6.932;2023-06-24T08:09:07;8.33;;;4.60;;
7340;SDS011;6870;50.944;6.932;2023-06-24T08:11:36;6.47;;;4.40;;
7340;SDS011;6870;50.944;6.932;2023-06-24T08:14:04;7.20;;;4.53;;
7340;SDS011;6870;50.944;6.932;2023-06-24T08:16:32;12.90;;;4.53;;
7340;SDS011;6870;50.944;6.932;2023-06-24T08:19:01;9.47;;;4.77;;
7340;SDS011;6870;50.944;6.932;2023-06-24T08:21:29;7.07;;;4.60;;
7340;SDS011;6870;50.944;6.932;2023-06-24T08:23:57;5.17;;;4.00;;
7340;SDS011;6870;50.944;6.932;2023-06-24T08:26:25;8.00;;;5.47;;
7340;SDS011;6870;50.944;6.932;2023-06-24T08:28:53;8.50;;;4.10;;
7340;SDS011;6870;50.944;6.932;2023-06-24T08:31:21;11.03;;;4.20;;
7340;SDS011;6870;50.944;6.932;2023-06-24T08:33:51;5.90;;;3.90;;
7340;SDS011;6870;50.944;6.932;2023-06-24T08:36:22;5.70;;;3.63;;
7340;SDS011;6870;50.944;6.932;2023-06-24T08:38:50;5.13;;;3.80;;
7340;SDS011;6870;50.944;6.932;2023-06-24T08:41:18;6.20;;;4.80;;
7340;SDS011;6870;50.944;6.932;2023-06-24T08:43:47;5.47;;;3.87;;
7340;SDS011;6870;50.944;6.932;2023-06-24T08:46:15;9.10;;;5.30;;
7340;SDS011;6870;50.944;6.932;2023-06-24T08:48:46;6.13;;;4.37;;
7340;SDS011;6870;50.944;6.932;2023-06-24T08:51:17;7.33;;;4.57;;
7340;SDS011;6870;50.944;6.932;2023-06-24T08:53:50;4.17;;;3.60;;
7340;SDS011;6870;50.944;6.932;2023-06-24T08:56:18;6.80;;;4.57;;
7340;SDS011;6870;50.944;6.932;2023-06-24T08:58:46;4.77;;;4.27;;
7340;SDS011;6870;50.944;6.932;2023-06-24T09:01:14;6.20;;;4.10;;
7340;SDS011;6870;50.944;6.932;2023-06-24T09:03:43;4.73;;;4.20;;
7340;SDS011;6870;50.944;6.932;2023-06-24T09:06:11;8.43;;;4.60;;
7340;SDS011;6870;50.944;6.932;2023-06-24T09:08:39;4.90;;;3.80;;
7340;SDS011;6870;50.944;6.932;2023-06-24T09:11:09;5.67;;;4.17;;
7340;SDS011;6870;50.944;6.932;2023-06-24T09:13:37;4.73;;;3.43;;
7340;SDS011;6870;50.944;6.932;2023-06-24T09:16:12;4.90;;;4.50;;
7340;SDS011;6870;50.944;6.932;2023-06-24T09:18:42;5.13;;;3.60;;
7340;SDS011;6870;50.944;6.932;2023-06-24T09:21:20;4.83;;;3.90;;
7340;SDS011;6870;50.944;6.932;2023-06-24T09:23:52;4.97;;;3.70;;
7340;SDS011;6870;50.944;6.932;2023-06-24T09:26:23;4.43;;;3.93;;
7340;SDS011;6870;50.944;6.932;2023-06-24T09:28:53;7.37;;;3.73;;
7340;SDS011;6870;50.944;6.932;2023-06-24T09:31:21;3.80;;;3.40;;
7340;SDS011;6870;50.944;6.932;2023-06-24T09:33:51;4.93;;;3.77;;
7340;SDS011;6870;50.944;6.932;2023-06-24T09:36:19;4.87;;;4.00;;
7340;SDS011;6870;50.944;6.932;2023-06-24T09:38:47;5.57;;;3.90;;
7340;SDS011;6870;50.944;6.932;2023-06-24T09:41:16;3.97;;;3.57;;
7340;SDS011;6870;50.944;6.932;2023-06-24T09:43:45;3.73;;;3.13;;
7340;SDS011;6870;50.944;6.932;2023-06-24T09:46:13;4.50;;;3.67;;
7340;SDS011;6870;50.944;6.932;2023-06-24T09:48:44;4.90;;;4.20;;
7340;SDS011;6870;50.944;6.932;2023-06-24T09:51:12;4.60;;;4.13;;
7340;SDS011;6870;50.944;6.932;2023-06-24T09:53:40;10.73;;;3.40;;
7340;SDS011;6870;50.944;6.932;2023-06-24T09:56:10;5.20;;;3.83;;
7340;SDS011;6870;50.944;6.932;2023-06-24T09:58:41;5.63;;;3.73;;
7340;SDS011;6870;50.944;6.932;2023-06-24T10:01:13;5.57;;;3.90;;
7340;SDS011;6870;50.944;6.932;2023-06-24T10:03:42;4.40;;;3.63;;
7340;SDS011;6870;50.944;6.932;2023-06-24T10:06:11;4.93;;;3.60;;
7340;SDS011;6870;50.944;6.932;2023-06-24T10:08:39;4.50;;;3.47;;
7340;SDS011;6870;50.944;6.932;2023-06-24T10:11:07;3.70;;;3.03;;
7340;SDS011;6870;50.944;6.932;2023-06-24T10:13:36;6.73;;;4.37;;
7340;SDS011;6870;50.944;6.932;2023-06-24T10:16:05;3.87;;;3.43;;
7340;SDS011;6870;50.944;6.932;2023-06-24T10:18:34;4.23;;;3.70;;
7340;SDS011;6870;50.944;6.932;2023-06-24T10:21:04;4.13;;;3.50;;
7340;SDS011;6870;50.944;6.932;2023-06-24T10:23:34;5.00;;;4.23;;
7340;SDS011;6870;50.944;6.932;2023-06-24T10:26:08;4.30;;;3.47;;
7340;SDS011;6870;50.944;6.932;2023-06-24T10:34:34;3.40;;;3.10;;
7340;SDS011;6870;50.944;6.932;2023-06-24T10:37:11;4.13;;;3.73;;
7340;SDS011;6870;50.944;6.932;2023-06-24T10:39:45;3.90;;;3.57;;
7340;SDS011;6870;50.944;6.932;2023-06-24T10:42:37;3.53;;;3.20;;
7340;SDS011;6870;50.944;6.932;2023-06-24T10:45:16;4.40;;;3.50;;
7340;SDS011;6870;50.944;6.932;2023-06-24T10:47:48;4.90;;;3.73;;
7340;SDS011;6870;50.944;6.932;2023-06-24T10:50:19;4.40;;;3.50;;
7340;SDS011;6870;50.944;6.932;2023-06-24T10:52:49;4.03;;;3.60;;
7340;SDS011;6870;50.944;6.932;2023-06-24T10:55:22;4.80;;;4.30;;
7340;SDS011;6870;50.944;6.932;2023-06-24T10:57:51;6.30;;;4.20;;
7340;SDS011;6870;50.944;6.932;2023-06-24T11:00:20;5.10;;;3.80;;
7340;SDS011;6870;50.944;6.932;2023-06-24T11:02:50;3.70;;;3.40;;
7340;SDS011;6870;50.944;6.932;2023-06-24T11:05:18;4.33;;;3.70;;
7340;SDS011;6870;50.944;6.932;2023-06-24T11:07:46;4.43;;;4.03;;
7340;SDS011;6870;50.944;6.932;2023-06-24T11:10:14;4.30;;;3.90;;
7340;SDS011;6870;50.944;6.932;2023-06-24T11:12:43;4.47;;;3.60;;
7340;SDS011;6870;50.944;6.932;2023-06-24T11:15:12;4.17;;;2.93;;
7340;SDS011;6870;50.944;6.932;2023-06-24T11:17:41;4.10;;;3.70;;
7340;SDS011;6870;50.944;6.932;2023-06-24T11:20:11;4.00;;;3.60;;
7340;SDS011;6870;50.944;6.932;2023-06-24T11:22:41;3.67;;;3.37;;
7340;SDS011;6870;50.944;6.932;2023-06-24T11:25:15;3.70;;;3.40;;
7340;SDS011;6870;50.944;6.932;2023-06-24T11:27:46;4.20;;;3.67;;
7340;SDS011;6870;50.944;6.932;2023-06-24T11:30:14;4.20;;;3.40;;
7340;SDS011;6870;50.944;6.932;2023-06-24T11:32:44;4.40;;;4.00;;
7340;SDS011;6870;50.944;6.932;2023-06-24T11:35:15;6.27;;;3.90;;
7340;SDS011;6870;50.944;6.932;2023-06-24T11:37:44;3.60;;;3.30;;
7340;SDS011;6870;50.944;6.932;2023-06-24T11:40:16;3.93;;;3.53;;
7340;SDS011;6870;50.944;6.932;2023-06-24T11:42:47;4.13;;;3.73;;
7340;SDS011;6870;50.944;6.932;2023-06-24T11:45:19;3.90;;;3.50;;
7340;SDS011;6870;50.944;6.932;2023-06-24T11:47:48;4.57;;;4.17;;
7340;SDS011;6870;50.944;6.932;2023-06-24T11:50:17;4.00;;;3.60;;
7340;SDS011;6870;50.944;6.932;2023-06-24T11:52:53;3.53;;;3.20;;
7340;SDS011;6870;50.944;6.932;2023-06-24T11:55:22;4.10;;;3.70;;
7340;SDS011;6870;50.944;6.932;2023-06-24T11:57:53;4.33;;;3.93;;
7340;SDS011;6870;50.944;6.932;2023-06-24T12:00:23;4.57;;;4.10;;
7340;SDS011;6870;50.944;6.932;2023-06-24T12:02:53;4.47;;;3.80;;
7340;SDS011;6870;50.944;6.932;2023-06-24T12:05:24;3.77;;;3.37;;
7340;SDS011;6870;50.944;6.932;2023-06-24T12:07:56;3.93;;;3.00;;
7340;SDS011;6870;50.944;6.932;2023-06-24T12:10:26;3.60;;;2.97;;
7340;SDS011;6870;50.944;6.932;2023-06-24T12:12:56;5.40;;;3.53;;
7340;SDS011;6870;50.944;6.932;2023-06-24T12:15:25;3.33;;;3.03;;
7340;SDS011;6870;50.944;6.932;2023-06-24T12:17:54;3.80;;;3.20;;
7340;SDS011;6870;50.944;6.932;2023-06-24T12:20:25;4.43;;;4.03;;
7340;SDS011;6870;50.944;6.932;2023-06-24T12:22:57;4.03;;;3.63;;
7340;SDS011;6870;50.944;6.932;2023-06-24T12:25:25;3.63;;;3.33;;
7340;SDS011;6870;50.944;6.932;2023-06-24T12:27:54;4.30;;;3.90;;
7340;SDS011;6870;50.944;6.932;2023-06-24T12:30:22;3.60;;;3.30;;
7340;SDS011;6870;50.944;6.932;2023-06-24T12:32:51;4.03;;;3.63;;
7340;SDS011;6870;50.944;6.932;2023-06-24T12:35:19;5.00;;;4.30;;
7340;SDS011;6870;50.944;6.932;2023-06-24T12:37:52;4.10;;;3.40;;
7340;SDS011;6870;50.944;6.932;2023-06-24T12:40:20;4.00;;;3.70;;
7340;SDS011;6870;50.944;6.932;2023-06-24T12:42:48;5.57;;;4.53;;
7340;SDS011;6870;50.944;6.932;2023-06-24T12:45:16;3.93;;;3.53;;
7340;SDS011;6870;50.944;6.932;2023-06-24T12:47:44;4.13;;;3.73;;
7340;SDS011;6870;50.944;6.932;2023-06-24T12:50:13;5.80;;;3.40;;
7340;SDS011;6870;50.944;6.932;2023-06-24T12:52:41;3.90;;;3.50;;
7340;SDS011;6870;50.944;6.932;2023-06-24T12:55:10;5.83;;;4.23;;
7340;SDS011;6870;50.944;6.932;2023-06-24T12:57:42;3.77;;;3.47;;
7340;SDS011;6870;50.944;6.932;2023-06-24T13:00:10;4.50;;;4.10;;
7340;SDS011;6870;50.944;6.932;2023-06-24T13:02:40;4.90;;;4.50;;
7340;SDS011;6870;50.944;6.932;2023-06-24T13:05:08;7.70;;;4.03;;
7340;SDS011;6870;50.944;6.932;2023-06-24T13:07:36;4.20;;;3.90;;
7340;SDS011;6870;50.944;6.932;2023-06-24T13:10:04;4.67;;;3.87;;
7340;SDS011;6870;50.944;6.932;2023-06-24T13:12:35;6.57;;;4.20;;
7340;SDS011;6870;50.944;6.932;2023-06-24T13:15:05;6.63;;;4.07;;
7340;SDS011;6870;50.944;6.932;2023-06-24T13:17:35;6.93;;;4.10;;
7340;SDS011;6870;50.944;6.932;2023-06-24T13:20:04;6.30;;;4.23;;
7340;SDS011;6870;50.944;6.932;2023-06-24T13:22:34;4.30;;;3.90;;
7340;SDS011;6870;50.944;6.932;2023-06-24T13:25:02;5.63;;;4.40;;
7340;SDS011;6870;50.944;6.932;2023-06-24T13:27:32;6.63;;;4.63;;
7340;SDS011;6870;50.944;6.932;2023-06-24T13:30:01;4.43;;;4.03;;
7340;SDS011;6870;50.944;6.932;2023-06-24T13:32:30;4.07;;;3.47;;
7340;SDS011;6870;50.944;6.932;2023-06-24T13:34:58;6.00;;;3.70;;
7340;SDS011;6870;50.944;6.932;2023-06-24T13:37:26;4.77;;;4.23;;
7340;SDS011;6870;50.944;6.932;2023-06-24T13:39:54;4.77;;;3.63;;
7340;SDS011;6870;50.944;6.932;2023-06-24T13:42:24;4.40;;;4.00;;
7340;SDS011;6870;50.944;6.932;2023-06-24T13:44:52;4.23;;;3.77;;
7340;SDS011;6870;50.944;6.932;2023-06-24T13:47:22;4.23;;;3.80;;
7340;SDS011;6870;50.944;6.932;2023-06-24T13:49:50;4.77;;;3.60;;
7340;SDS011;6870;50.944;6.932;2023-06-24T13:52:18;8.53;;;4.33;;
7340;SDS011;6870;50.944;6.932;2023-06-24T13:54:47;8.73;;;4.80;;
7340;SDS011;6870;50.944;6.932;2023-06-24T13:57:15;5.90;;;4.13;;
7340;SDS011;6870;50.944;6.932;2023-06-24T13:59:43;5.07;;;4.43;;
7340;SDS011;6870;50.944;6.932;2023-06-24T14:02:11;6.87;;;4.33;;
7340;SDS011;6870;50.944;6.932;2023-06-24T14:04:40;4.30;;;3.80;;
7340;SDS011;6870;50.944;6.932;2023-06-24T14:07:09;4.97;;;4.43;;
7340;SDS011;6870;50.944;6.932;2023-06-24T14:09:37;3.83;;;3.53;;
7340;SDS011;6870;50.944;6.932;2023-06-24T14:12:06;4.97;;;4.40;;
7340;SDS011;6870;50.944;6.932;2023-06-24T14:14:36;4.37;;;3.97;;
7340;SDS011;6870;50.944;6.932;2023-06-24T14:17:05;6.00;;;4.50;;
7340;SDS011;6870;50.944;6.932;2023-06-24T14:19:37;5.13;;;4.07;;
7340;SDS011;6870;50.944;6.932;2023-06-24T14:22:07;4.63;;;4.13;;
7340;SDS011;6870;50.944;6.932;2023-06-24T14:24:36;5.20;;;3.90;;
7340;SDS011;6870;50.944;6.932;2023-06-24T14:27:05;7.03;;;4.30;;
7340;SDS011;6870;50.944;6.932;2023-06-24T14:29:34;3.80;;;3.50;;
7340;SDS011;6870;50.944;6.932;2023-06-24T14:32:03;6.83;;;4.50;;
7340;SDS011;6870;50.944;6.932;2023-06-24T14:34:32;6.90;;;4.33;;
7340;SDS011;6870;50.944;6.932;2023-06-24T14:37:00;4.60;;;3.97;;
7340;SDS011;6870;50.944;6.932;2023-06-24T14:39:29;4.50;;;4.00;;
7340;SDS011;6870;50.944;6.932;2023-06-24T14:41:57;4.77;;;4.20;;
7340;SDS011;6870;50.944;6.932;2023-06-24T14:44:25;6.67;;;4.00;;
7340;SDS011;6870;50.944;6.932;2023-06-24T14:46:53;6.17;;;5.07;;
7340;SDS011;6870;50.944;6.932;2023-06-24T14:49:21;28.33;;;10.93;;
7340;SDS011;6870;50.944;6.932;2023-06-24T14:51:51;36.83;;;14.10;;
7340;SDS011;6870;50.944;6.932;2023-06-24T14:54:19;19.50;;;10.80;;
7340;SDS011;6870;50.944;6.932;2023-06-24T14:56:48;20.50;;;8.87;;
7340;SDS011;6870;50.944;6.932;2023-06-24T14:59:16;18.13;;;9.00;;
7340;SDS011;6870;50.944;6.932;2023-06-24T15:01:44;19.67;;;8.53;;
7340;SDS011;6870;50.944;6.932;2023-06-24T15:04:12;18.67;;;9.80;;
7340;SDS011;6870;50.944;6.932;2023-06-24T15:06:41;11.20;;;6.97;;
7340;SDS011;6870;50.944;6.932;2023-06-24T15:09:09;22.23;;;9.00;;
7340;SDS011;6870;50.944;6.932;2023-06-24T15:11:37;14.87;;;7.57;;
7340;SDS011;6870;50.944;6.932;2023-06-24T15:14:06;15.07;;;6.30;;
7340;SDS011;6870;50.944;6.932;2023-06-24T15:16:34;10.10;;;6.60;;
7340;SDS011;6870;50.944;6.932;2023-06-24T15:19:02;11.87;;;6.73;;
7340;SDS011;6870;50.944;6.932;2023-06-24T15:21:30;16.10;;;6.53;;
7340;SDS011;6870;50.944;6.932;2023-06-24T15:24:03;13.80;;;5.87;;
7340;SDS011;6870;50.944;6.932;2023-06-24T15:26:32;6.97;;;5.97;;
7340;SDS011;6870;50.944;6.932;2023-06-24T15:29:00;10.03;;;5.80;;
7340;SDS011;6870;50.944;6.932;2023-06-24T15:31:29;11.40;;;6.47;;
7340;SDS011;6870;50.944;6.932;2023-06-24T15:33:57;9.33;;;6.80;;